sensor_id;sensor_type;location;lat;lon;timestamp;temperature;humidity
1175;DHT22;576;48.418;10.074;2022-09-09T00:01:03;26.40;65.40
1175;DHT22;576;48.418;10.074;2022-09-09T00:03:40;26.40;65.40
1175;DHT22;576;48.418;10.074;2022-09-09T00:06:20;26.40;65.40
1175;DHT22;576;48.418;10.074;2022-09-09T00:08:58;26.40;65.40
1175;DHT22;576;48.418;10.074;2022-09-09T00:11:32;26.40;65.40
1175;DHT22;576;48.418;10.074;2022-09-09T00:14:10;26.40;65.40
1175;DHT22;576;48.418;10.074;2022-09-09T00:16:44;26.30;65.40
1175;DHT22;576;48.418;10.074;2022-09-09T00:19:20;26.30;65.40
1175;DHT22;576;48.418;10.074;2022-09-09T00:21:55;26.30;65.40
1175;DHT22;576;48.418;10.074;2022-09-09T00:24:26;26.30;65.40
1175;DHT22;576;48.418;10.074;2022-09-09T00:27:00;26.30;65.40
1175;DHT22;576;48.418;10.074;2022-09-09T00:29:34;26.30;65.40
1175;DHT22;576;48.418;10.074;2022-09-09T00:32:12;26.30;65.40
1175;DHT22;576;48.418;10.074;2022-09-09T00:34:47;26.30;65.40
1175;DHT22;576;48.418;10.074;2022-09-09T00:37:16;26.30;65.30
1175;DHT22;576;48.418;10.074;2022-09-09T00:39:46;26.30;65.30
1175;DHT22;576;48.418;10.074;2022-09-09T00:42:17;26.30;65.30
1175;DHT22;576;48.418;10.074;2022-09-09T00:44:59;26.30;65.30
1175;DHT22;576;48.418;10.074;2022-09-09T00:47:44;26.30;65.30
1175;DHT22;576;48.418;10.074;2022-09-09T00:50:35;26.30;65.30
1175;DHT22;576;48.418;10.074;2022-09-09T00:53:18;26.30;65.30
1175;DHT22;576;48.418;10.074;2022-09-09T00:55:51;26.20;65.30
1175;DHT22;576;48.418;10.074;2022-09-09T00:58:22;26.20;65.20
1175;DHT22;576;48.418;10.074;2022-09-09T01:00:54;26.20;65.20
1175;DHT22;576;48.418;10.074;2022-09-09T01:03:34;26.20;65.20
1175;DHT22;576;48.418;10.074;2022-09-09T01:06:13;26.20;65.30
1175;DHT22;576;48.418;10.074;2022-09-09T01:09:13;26.20;65.20
1175;DHT22;576;48.418;10.074;2022-09-09T01:11:55;26.20;65.20
1175;DHT22;576;48.418;10.074;2022-09-09T01:14:40;26.10;65.30
1175;DHT22;576;48.418;10.074;2022-09-09T01:17:15;26.20;65.20
1175;DHT22;576;48.418;10.074;2022-09-09T01:20:03;26.10;65.30
1175;DHT22;576;48.418;10.074;2022-09-09T01:22:49;26.10;65.30
1175;DHT22;576;48.418;10.074;2022-09-09T01:25:26;26.10;65.30
1175;DHT22;576;48.418;10.074;2022-09-09T01:28:10;26.10;65.30
1175;DHT22;576;48.418;10.074;2022-09-09T01:30:40;26.10;65.30
1175;DHT22;576;48.418;10.074;2022-09-09T01:33:14;26.10;65.30
1175;DHT22;576;48.418;10.074;2022-09-09T01:35:46;26.10;65.20
1175;DHT22;576;48.418;10.074;2022-09-09T01:38:18;26.10;65.20
1175;DHT22;576;48.418;10.074;2022-09-09T01:40:49;26.10;65.20
1175;DHT22;576;48.418;10.074;2022-09-09T01:43:24;26.10;65.20
1175;DHT22;576;48.418;10.074;2022-09-09T01:45:54;26.10;65.20
1175;DHT22;576;48.418;10.074;2022-09-09T01:48:24;26.10;65.20
1175;DHT22;576;48.418;10.074;2022-09-09T01:51:01;26.10;65.20
1175;DHT22;576;48.418;10.074;2022-09-09T01:53:38;26.10;65.20
1175;DHT22;576;48.418;10.074;2022-09-09T01:56:15;26.10;65.20
1175;DHT22;576;48.418;10.074;2022-09-09T01:59:02;26.10;65.20
1175;DHT22;576;48.418;10.074;2022-09-09T02:01:42;26.00;65.20
1175;DHT22;576;48.418;10.074;2022-09-09T02:04:24;26.00;65.20
1175;DHT22;576;48.418;10.074;2022-09-09T02:06:56;26.00;65.10
1175;DHT22;576;48.418;10.074;2022-09-09T02:09:29;26.10;65.10
1175;DHT22;576;48.418;10.074;2022-09-09T02:12:03;26.00;65.10
1175;DHT22;576;48.418;10.074;2022-09-09T02:14:48;26.00;65.10
1175;DHT22;576;48.418;10.074;2022-09-09T02:17:22;26.00;65.10
1175;DHT22;576;48.418;10.074;2022-09-09T02:20:04;26.00;65.10
1175;DHT22;576;48.418;10.074;2022-09-09T02:22:44;26.00;65.10
1175;DHT22;576;48.418;10.074;2022-09-09T02:25:18;26.00;65.10
1175;DHT22;576;48.418;10.074;2022-09-09T02:27:50;26.00;65.10
1175;DHT22;576;48.418;10.074;2022-09-09T02:30:20;26.00;65.10
1175;DHT22;576;48.418;10.074;2022-09-09T02:32:59;26.00;65.10
1175;DHT22;576;48.418;10.074;2022-09-09T02:35:45;26.00;65.10
1175;DHT22;576;48.418;10.074;2022-09-09T02:38:18;26.00;65.10
1175;DHT22;576;48.418;10.074;2022-09-09T02:40:58;26.00;65.10
1175;DHT22;576;48.418;10.074;2022-09-09T02:43:30;26.00;65.10
1175;DHT22;576;48.418;10.074;2022-09-09T02:46:08;26.00;65.10
1175;DHT22;576;48.418;10.074;2022-09-09T02:48:46;26.00;65.10
1175;DHT22;576;48.418;10.074;2022-09-09T02:51:22;26.00;65.10
1175;DHT22;576;48.418;10.074;2022-09-09T02:53:57;26.00;65.10
1175;DHT22;576;48.418;10.074;2022-09-09T02:56:30;25.90;65.10
1175;DHT22;576;48.418;10.074;2022-09-09T02:59:03;25.90;65.10
1175;DHT22;576;48.418;10.074;2022-09-09T03:01:34;25.90;65.00
1175;DHT22;576;48.418;10.074;2022-09-09T03:04:03;25.90;65.00
1175;DHT22;576;48.418;10.074;2022-09-09T03:06:32;25.90;65.00
1175;DHT22;576;48.418;10.074;2022-09-09T03:09:10;25.90;65.00
1175;DHT22;576;48.418;10.074;2022-09-09T03:11:38;25.90;65.00
1175;DHT22;576;48.418;10.074;2022-09-09T03:14:07;25.90;65.00
1175;DHT22;576;48.418;10.074;2022-09-09T03:16:37;25.90;65.00
1175;DHT22;576;48.418;10.074;2022-09-09T03:19:06;25.90;65.00
1175;DHT22;576;48.418;10.074;2022-09-09T03:21:34;25.90;65.00
1175;DHT22;576;48.418;10.074;2022-09-09T03:24:02;25.90;65.00
1175;DHT22;576;48.418;10.074;2022-09-09T03:26:31;25.90;65.00
1175;DHT22;576;48.418;10.074;2022-09-09T03:29:01;25.90;65.00
1175;DHT22;576;48.418;10.074;2022-09-09T03:31:30;25.90;65.00
1175;DHT22;576;48.418;10.074;2022-09-09T03:33:59;25.90;65.00
1175;DHT22;576;48.418;10.074;2022-09-09T03:36:31;25.90;65.00
1175;DHT22;576;48.418;10.074;2022-09-09T03:38:59;25.90;64.90
1175;DHT22;576;48.418;10.074;2022-09-09T03:41:30;25.90;64.90
1175;DHT22;576;48.418;10.074;2022-09-09T03:44:00;25.90;64.90
1175;DHT22;576;48.418;10.074;2022-09-09T03:46:33;25.90;64.90
1175;DHT22;576;48.418;10.074;2022-09-09T03:49:03;25.90;64.90
1175;DHT22;576;48.418;10.074;2022-09-09T03:51:32;25.90;64.90
1175;DHT22;576;48.418;10.074;2022-09-09T03:54:04;25.80;64.90
1175;DHT22;576;48.418;10.074;2022-09-09T03:56:35;25.80;64.90
1175;DHT22;576;48.418;10.074;2022-09-09T03:59:04;25.80;64.90
1175;DHT22;576;48.418;10.074;2022-09-09T04:01:32;25.80;64.90
1175;DHT22;576;48.418;10.074;2022-09-09T04:04:01;25.80;64.90
1175;DHT22;576;48.418;10.074;2022-09-09T04:06:30;25.80;64.90
1175;DHT22;576;48.418;10.074;2022-09-09T04:08:58;25.80;64.90
1175;DHT22;576;48.418;10.074;2022-09-09T04:11:30;25.80;64.90
1175;DHT22;576;48.418;10.074;2022-09-09T04:13:59;25.80;64.90
1175;DHT22;576;48.418;10.074;2022-09-09T04:16:30;25.80;64.80
1175;DHT22;576;48.418;10.074;2022-09-09T04:18:58;25.80;64.80
1175;DHT22;576;48.418;10.074;2022-09-09T04:21:29;25.80;64.90
1175;DHT22;576;48.418;10.074;2022-09-09T04:23:59;25.80;64.80
1175;DHT22;576;48.418;10.074;2022-09-09T04:26:27;25.80;64.80
1175;DHT22;576;48.418;10.074;2022-09-09T04:28:55;25.80;64.80
1175;DHT22;576;48.418;10.074;2022-09-09T04:31:25;25.80;64.80
1175;DHT22;576;48.418;10.074;2022-09-09T04:33:56;25.80;64.80
1175;DHT22;576;48.418;10.074;2022-09-09T04:36:25;25.80;64.80
1175;DHT22;576;48.418;10.074;2022-09-09T04:38:59;25.80;64.80
1175;DHT22;576;48.418;10.074;2022-09-09T04:41:28;25.80;64.80
1175;DHT22;576;48.418;10.074;2022-09-09T04:43:58;25.80;64.80
1175;DHT22;576;48.418;10.074;2022-09-09T04:46:27;25.80;64.80
1175;DHT22;576;48.418;10.074;2022-09-09T04:48:56;25.80;64.80
1175;DHT22;576;48.418;10.074;2022-09-09T04:51:29;25.80;64.80
1175;DHT22;576;48.418;10.074;2022-09-09T04:53:59;25.80;64.80
1175;DHT22;576;48.418;10.074;2022-09-09T04:56:27;25.80;64.80
1175;DHT22;576;48.418;10.074;2022-09-09T04:58:57;25.80;64.80
1175;DHT22;576;48.418;10.074;2022-09-09T05:01:41;25.70;64.80
1175;DHT22;576;48.418;10.074;2022-09-09T05:04:10;25.70;64.80
1175;DHT22;576;48.418;10.074;2022-09-09T05:06:38;25.70;64.80
1175;DHT22;576;48.418;10.074;2022-09-09T05:09:08;25.70;64.80
1175;DHT22;576;48.418;10.074;2022-09-09T05:11:36;25.70;64.80
1175;DHT22;576;48.418;10.074;2022-09-09T05:14:14;25.70;64.80
1175;DHT22;576;48.418;10.074;2022-09-09T05:16:44;25.70;64.80
1175;DHT22;576;48.418;10.074;2022-09-09T05:19:14;25.70;64.80
1175;DHT22;576;48.418;10.074;2022-09-09T05:21:46;25.70;64.80
1175;DHT22;576;48.418;10.074;2022-09-09T05:24:18;25.70;64.80
1175;DHT22;576;48.418;10.074;2022-09-09T05:26:49;25.70;64.80
1175;DHT22;576;48.418;10.074;2022-09-09T05:29:18;25.70;64.80
1175;DHT22;576;48.418;10.074;2022-09-09T05:31:46;25.70;64.80
1175;DHT22;576;48.418;10.074;2022-09-09T05:34:19;25.70;64.80
1175;DHT22;576;48.418;10.074;2022-09-09T05:36:49;25.70;64.80
1175;DHT22;576;48.418;10.074;2022-09-09T05:39:22;25.70;64.80
1175;DHT22;576;48.418;10.074;2022-09-09T05:41:50;25.70;64.90
1175;DHT22;576;48.418;10.074;2022-09-09T05:44:19;25.70;64.90
1175;DHT22;576;48.418;10.074;2022-09-09T05:46:47;25.70;64.90
1175;DHT22;576;48.418;10.074;2022-09-09T05:49:16;25.70;64.90
1175;DHT22;576;48.418;10.074;2022-09-09T05:51:44;25.70;64.90
1175;DHT22;576;48.418;10.074;2022-09-09T05:54:14;25.70;64.90
1175;DHT22;576;48.418;10.074;2022-09-09T05:56:48;25.70;65.00
1175;DHT22;576;48.418;10.074;2022-09-09T05:59:19;25.70;65.00
1175;DHT22;576;48.418;10.074;2022-09-09T06:01:51;25.70;65.00
1175;DHT22;576;48.418;10.074;2022-09-09T06:04:28;25.70;65.00
1175;DHT22;576;48.418;10.074;2022-09-09T06:06:59;25.70;65.10
1175;DHT22;576;48.418;10.074;2022-09-09T06:09:29;25.70;65.10
1175;DHT22;576;48.418;10.074;2022-09-09T06:11:58;25.70;65.10
1175;DHT22;576;48.418;10.074;2022-09-09T06:14:26;25.70;65.10
1175;DHT22;576;48.418;10.074;2022-09-09T06:16:58;25.70;65.10
1175;DHT22;576;48.418;10.074;2022-09-09T06:19:29;25.70;65.10
1175;DHT22;576;48.418;10.074;2022-09-09T06:21:58;25.70;65.20
1175;DHT22;576;48.418;10.074;2022-09-09T06:24:29;25.70;65.20
1175;DHT22;576;48.418;10.074;2022-09-09T06:27:01;25.70;65.20
1175;DHT22;576;48.418;10.074;2022-09-09T06:29:33;25.70;65.40
1175;DHT22;576;48.418;10.074;2022-09-09T06:32:02;25.70;65.70
1175;DHT22;576;48.418;10.074;2022-09-09T06:34:30;25.70;65.50
1175;DHT22;576;48.418;10.074;2022-09-09T06:36:59;25.80;65.80
1175;DHT22;576;48.418;10.074;2022-09-09T06:39:48;25.80;65.80
1175;DHT22;576;48.418;10.074;2022-09-09T06:42:19;25.90;65.80
1175;DHT22;576;48.418;10.074;2022-09-09T06:44:48;25.90;65.80
1175;DHT22;576;48.418;10.074;2022-09-09T06:47:23;25.90;65.80
1175;DHT22;576;48.418;10.074;2022-09-09T06:49:53;25.90;65.70
1175;DHT22;576;48.418;10.074;2022-09-09T06:52:21;25.90;65.50
1175;DHT22;576;48.418;10.074;2022-09-09T06:54:50;25.90;65.60
1175;DHT22;576;48.418;10.074;2022-09-09T06:57:19;25.90;65.40
1175;DHT22;576;48.418;10.074;2022-09-09T07:00:06;25.90;65.40
1175;DHT22;576;48.418;10.074;2022-09-09T07:02:34;25.90;65.60
1175;DHT22;576;48.418;10.074;2022-09-09T07:05:07;26.00;65.60
1175;DHT22;576;48.418;10.074;2022-09-09T07:07:37;26.00;65.60
1175;DHT22;576;48.418;10.074;2022-09-09T07:10:06;26.00;65.60
1175;DHT22;576;48.418;10.074;2022-09-09T07:12:37;26.00;65.60
1175;DHT22;576;48.418;10.074;2022-09-09T07:15:09;26.00;65.50
1175;DHT22;576;48.418;10.074;2022-09-09T07:17:41;26.10;65.40
1175;DHT22;576;48.418;10.074;2022-09-09T07:20:09;26.10;65.20
1175;DHT22;576;48.418;10.074;2022-09-09T07:22:38;26.10;65.30
1175;DHT22;576;48.418;10.074;2022-09-09T07:25:08;26.10;65.20
1175;DHT22;576;48.418;10.074;2022-09-09T07:27:38;26.10;65.20
1175;DHT22;576;48.418;10.074;2022-09-09T07:30:09;26.10;65.30
1175;DHT22;576;48.418;10.074;2022-09-09T07:32:45;26.10;65.20
1175;DHT22;576;48.418;10.074;2022-09-09T07:35:13;26.20;65.00
1175;DHT22;576;48.418;10.074;2022-09-09T07:37:42;26.20;64.90
1175;DHT22;576;48.418;10.074;2022-09-09T07:40:17;26.20;64.90
1175;DHT22;576;48.418;10.074;2022-09-09T07:42:48;26.30;64.90
1175;DHT22;576;48.418;10.074;2022-09-09T07:45:16;26.30;64.90
1175;DHT22;576;48.418;10.074;2022-09-09T07:47:45;26.30;64.90
1175;DHT22;576;48.418;10.074;2022-09-09T07:50:15;26.30;64.90
1175;DHT22;576;48.418;10.074;2022-09-09T07:52:43;26.30;64.90
1175;DHT22;576;48.418;10.074;2022-09-09T07:55:12;26.30;64.70
1175;DHT22;576;48.418;10.074;2022-09-09T07:57:40;26.30;64.70
1175;DHT22;576;48.418;10.074;2022-09-09T08:00:12;26.30;64.70
1175;DHT22;576;48.418;10.074;2022-09-09T08:02:45;26.30;64.50
1175;DHT22;576;48.418;10.074;2022-09-09T08:05:14;26.40;64.70
1175;DHT22;576;48.418;10.074;2022-09-09T08:07:44;26.40;64.80
1175;DHT22;576;48.418;10.074;2022-09-09T08:10:12;26.50;64.90
1175;DHT22;576;48.418;10.074;2022-09-09T08:12:41;26.50;64.70
1175;DHT22;576;48.418;10.074;2022-09-09T08:15:31;26.50;64.70
1175;DHT22;576;48.418;10.074;2022-09-09T08:18:01;26.50;64.60
1175;DHT22;576;48.418;10.074;2022-09-09T08:20:32;26.50;64.80
1175;DHT22;576;48.418;10.074;2022-09-09T08:23:00;26.60;64.70
1175;DHT22;576;48.418;10.074;2022-09-09T08:25:28;26.60;64.70
1175;DHT22;576;48.418;10.074;2022-09-09T08:27:56;26.60;64.90
1175;DHT22;576;48.418;10.074;2022-09-09T08:30:25;26.60;64.70
1175;DHT22;576;48.418;10.074;2022-09-09T08:32:55;26.60;64.70
1175;DHT22;576;48.418;10.074;2022-09-09T08:35:23;26.60;64.70
1175;DHT22;576;48.418;10.074;2022-09-09T08:37:54;26.60;64.70
1175;DHT22;576;48.418;10.074;2022-09-09T08:40:28;26.60;64.70
1175;DHT22;576;48.418;10.074;2022-09-09T08:42:59;26.60;64.80
1175;DHT22;576;48.418;10.074;2022-09-09T08:45:34;26.60;64.60
1175;DHT22;576;48.418;10.074;2022-09-09T08:48:21;26.60;64.60
1175;DHT22;576;48.418;10.074;2022-09-09T08:50:53;26.70;64.80
1175;DHT22;576;48.418;10.074;2022-09-09T08:53:38;26.70;64.70
1175;DHT22;576;48.418;10.074;2022-09-09T08:56:14;26.70;64.70
1175;DHT22;576;48.418;10.074;2022-09-09T08:58:49;26.70;64.80
1175;DHT22;576;48.418;10.074;2022-09-09T09:01:41;26.70;64.70
1175;DHT22;576;48.418;10.074;2022-09-09T09:04:33;26.70;65.00
1175;DHT22;576;48.418;10.074;2022-09-09T09:07:12;26.70;65.10
1175;DHT22;576;48.418;10.074;2022-09-09T09:09:51;26.70;65.10
1175;DHT22;576;48.418;10.074;2022-09-09T09:12:28;26.70;65.10
1175;DHT22;576;48.418;10.074;2022-09-09T09:14:59;26.70;65.10
1175;DHT22;576;48.418;10.074;2022-09-09T09:17:29;26.70;65.30
1175;DHT22;576;48.418;10.074;2022-09-09T09:20:05;26.70;65.10
1175;DHT22;576;48.418;10.074;2022-09-09T09:22:39;26.70;65.30
1175;DHT22;576;48.418;10.074;2022-09-09T09:25:17;26.70;65.40
1175;DHT22;576;48.418;10.074;2022-09-09T09:27:53;26.70;64.90
1175;DHT22;576;48.418;10.074;2022-09-09T09:30:28;26.70;65.30
1175;DHT22;576;48.418;10.074;2022-09-09T09:33:08;26.80;65.50
1175;DHT22;576;48.418;10.074;2022-09-09T09:35:41;26.80;65.20
1175;DHT22;576;48.418;10.074;2022-09-09T09:38:17;26.80;65.30
1175;DHT22;576;48.418;10.074;2022-09-09T09:41:13;26.90;65.00
1175;DHT22;576;48.418;10.074;2022-09-09T09:43:41;26.90;64.70
1175;DHT22;576;48.418;10.074;2022-09-09T09:46:20;26.90;64.70
1175;DHT22;576;48.418;10.074;2022-09-09T09:48:56;26.90;65.00
1175;DHT22;576;48.418;10.074;2022-09-09T09:51:28;26.80;64.70
1175;DHT22;576;48.418;10.074;2022-09-09T09:54:13;26.90;64.90
1175;DHT22;576;48.418;10.074;2022-09-09T09:56:47;26.90;64.60
1175;DHT22;576;48.418;10.074;2022-09-09T09:59:24;26.90;64.60
1175;DHT22;576;48.418;10.074;2022-09-09T10:02:19;26.90;64.60
1175;DHT22;576;48.418;10.074;2022-09-09T10:05:05;26.90;64.70
1175;DHT22;576;48.418;10.074;2022-09-09T10:07:37;26.90;64.80
1175;DHT22;576;48.418;10.074;2022-09-09T10:10:09;26.90;64.70
1175;DHT22;576;48.418;10.074;2022-09-09T10:12:51;26.90;65.00
1175;DHT22;576;48.418;10.074;2022-09-09T10:15:31;26.90;65.00
1175;DHT22;576;48.418;10.074;2022-09-09T10:18:13;26.90;64.60
1175;DHT22;576;48.418;10.074;2022-09-09T10:20:51;26.90;65.40
1175;DHT22;576;48.418;10.074;2022-09-09T10:23:33;26.90;64.60
1175;DHT22;576;48.418;10.074;2022-09-09T10:26:29;26.90;64.50
1175;DHT22;576;48.418;10.074;2022-09-09T10:32:12;27.00;64.20
1175;DHT22;576;48.418;10.074;2022-09-09T10:34:56;27.00;64.10
1175;DHT22;576;48.418;10.074;2022-09-09T10:37:40;27.00;64.70
1175;DHT22;576;48.418;10.074;2022-09-09T10:40:26;27.10;65.00
1175;DHT22;576;48.418;10.074;2022-09-09T10:43:03;27.20;64.80
1175;DHT22;576;48.418;10.074;2022-09-09T10:45:45;27.20;64.30
1175;DHT22;576;48.418;10.074;2022-09-09T10:48:30;27.30;64.20
1175;DHT22;576;48.418;10.074;2022-09-09T10:51:18;27.40;63.80
1175;DHT22;576;48.418;10.074;2022-09-09T10:53:58;27.60;63.40
1175;DHT22;576;48.418;10.074;2022-09-09T10:56:32;27.70;63.30
1175;DHT22;576;48.418;10.074;2022-09-09T10:59:06;27.80;62.90
1175;DHT22;576;48.418;10.074;2022-09-09T11:01:40;27.90;62.90
1175;DHT22;576;48.418;10.074;2022-09-09T11:04:15;28.10;62.50
1175;DHT22;576;48.418;10.074;2022-09-09T11:06:48;28.30;61.90
1175;DHT22;576;48.418;10.074;2022-09-09T11:09:20;28.60;61.30
1175;DHT22;576;48.418;10.074;2022-09-09T11:11:53;28.90;60.70
1175;DHT22;576;48.418;10.074;2022-09-09T11:14:29;29.10;60.10
1175;DHT22;576;48.418;10.074;2022-09-09T11:17:11;29.30;59.50
1175;DHT22;576;48.418;10.074;2022-09-09T11:19:44;29.50;59.10
1175;DHT22;576;48.418;10.074;2022-09-09T11:22:21;29.70;58.80
1175;DHT22;576;48.418;10.074;2022-09-09T11:24:56;29.80;58.30
1175;DHT22;576;48.418;10.074;2022-09-09T11:27:31;29.90;58.10
1175;DHT22;576;48.418;10.074;2022-09-09T11:30:16;30.00;58.00
1175;DHT22;576;48.418;10.074;2022-09-09T11:33:29;30.10;57.60
1175;DHT22;576;48.418;10.074;2022-09-09T11:36:25;30.40;57.10
1175;DHT22;576;48.418;10.074;2022-09-09T11:39:06;30.50;56.60
1175;DHT22;576;48.418;10.074;2022-09-09T11:41:36;30.60;56.50
1175;DHT22;576;48.418;10.074;2022-09-09T11:44:13;30.60;56.40
1175;DHT22;576;48.418;10.074;2022-09-09T11:46:46;30.40;56.60
1175;DHT22;576;48.418;10.074;2022-09-09T11:49:27;30.30;57.00
1175;DHT22;576;48.418;10.074;2022-09-09T11:51:55;30.40;57.00
1175;DHT22;576;48.418;10.074;2022-09-09T11:54:31;30.50;56.80
1175;DHT22;576;48.418;10.074;2022-09-09T11:56:59;30.40;56.60
1175;DHT22;576;48.418;10.074;2022-09-09T11:59:30;30.20;56.80
1175;DHT22;576;48.418;10.074;2022-09-09T12:01:59;29.90;57.60
1175;DHT22;576;48.418;10.074;2022-09-09T12:04:35;29.60;58.20
1175;DHT22;576;48.418;10.074;2022-09-09T12:07:29;29.40;58.90
1175;DHT22;576;48.418;10.074;2022-09-09T12:10:02;29.20;59.40
1175;DHT22;576;48.418;10.074;2022-09-09T12:12:33;29.40;59.20
1175;DHT22;576;48.418;10.074;2022-09-09T12:15:26;29.80;58.60
1175;DHT22;576;48.418;10.074;2022-09-09T12:17:57;30.10;57.90
1175;DHT22;576;48.418;10.074;2022-09-09T12:20:34;30.50;57.40
1175;DHT22;576;48.418;10.074;2022-09-09T12:23:19;30.70;57.00
1175;DHT22;576;48.418;10.074;2022-09-09T12:25:59;31.00;56.50
1175;DHT22;576;48.418;10.074;2022-09-09T12:28:48;31.20;56.10
1175;DHT22;576;48.418;10.074;2022-09-09T12:31:24;31.30;55.90
1175;DHT22;576;48.418;10.074;2022-09-09T12:33:53;31.50;55.80
1175;DHT22;576;48.418;10.074;2022-09-09T12:36:24;31.50;55.70
1175;DHT22;576;48.418;10.074;2022-09-09T12:38:56;31.40;55.90
1175;DHT22;576;48.418;10.074;2022-09-09T12:41:27;31.10;56.60
1175;DHT22;576;48.418;10.074;2022-09-09T12:44:04;30.80;57.00
1175;DHT22;576;48.418;10.074;2022-09-09T12:46:39;30.70;57.70
1175;DHT22;576;48.418;10.074;2022-09-09T12:49:26;30.70;57.80
1175;DHT22;576;48.418;10.074;2022-09-09T12:51:55;30.70;57.80
1175;DHT22;576;48.418;10.074;2022-09-09T12:54:25;30.80;57.90
1175;DHT22;576;48.418;10.074;2022-09-09T12:56:55;30.90;57.90
1175;DHT22;576;48.418;10.074;2022-09-09T12:59:24;30.90;57.70
1175;DHT22;576;48.418;10.074;2022-09-09T13:01:58;30.90;57.80
1175;DHT22;576;48.418;10.074;2022-09-09T13:04:26;30.80;58.10
1175;DHT22;576;48.418;10.074;2022-09-09T13:07:05;30.50;58.40
1175;DHT22;576;48.418;10.074;2022-09-09T13:09:38;30.30;58.90
1175;DHT22;576;48.418;10.074;2022-09-09T13:12:10;30.10;59.30
1175;DHT22;576;48.418;10.074;2022-09-09T13:14:43;30.00;59.60
1175;DHT22;576;48.418;10.074;2022-09-09T13:17:21;29.80;60.10
1175;DHT22;576;48.418;10.074;2022-09-09T13:19:50;29.60;60.20
1175;DHT22;576;48.418;10.074;2022-09-09T13:22:30;29.50;60.60
1175;DHT22;576;48.418;10.074;2022-09-09T13:25:02;29.40;60.90
1175;DHT22;576;48.418;10.074;2022-09-09T13:27:33;29.40;61.10
1175;DHT22;576;48.418;10.074;2022-09-09T13:30:21;29.30;61.20
1175;DHT22;576;48.418;10.074;2022-09-09T13:33:06;29.30;61.30
1175;DHT22;576;48.418;10.074;2022-09-09T13:35:35;29.20;61.50
1175;DHT22;576;48.418;10.074;2022-09-09T13:38:07;29.20;61.70
1175;DHT22;576;48.418;10.074;2022-09-09T13:40:37;29.20;62.00
1175;DHT22;576;48.418;10.074;2022-09-09T13:43:15;29.20;62.20
1175;DHT22;576;48.418;10.074;2022-09-09T13:45:53;29.30;62.20
1175;DHT22;576;48.418;10.074;2022-09-09T13:48:25;29.50;61.80
1175;DHT22;576;48.418;10.074;2022-09-09T13:50:59;29.60;61.70
1175;DHT22;576;48.418;10.074;2022-09-09T13:53:27;29.80;61.40
1175;DHT22;576;48.418;10.074;2022-09-09T13:55:57;29.80;61.30
1175;DHT22;576;48.418;10.074;2022-09-09T13:58:26;29.90;61.40
1175;DHT22;576;48.418;10.074;2022-09-09T14:00:54;30.00;61.60
1175;DHT22;576;48.418;10.074;2022-09-09T14:03:23;30.00;61.50
1175;DHT22;576;48.418;10.074;2022-09-09T14:05:51;30.00;61.60
1175;DHT22;576;48.418;10.074;2022-09-09T14:08:24;30.10;61.50
1175;DHT22;576;48.418;10.074;2022-09-09T14:10:53;30.10;61.60
1175;DHT22;576;48.418;10.074;2022-09-09T14:13:22;30.10;61.90
1175;DHT22;576;48.418;10.074;2022-09-09T14:15:51;30.10;61.90
1175;DHT22;576;48.418;10.074;2022-09-09T14:18:19;30.10;62.30
1175;DHT22;576;48.418;10.074;2022-09-09T14:20:50;30.10;62.00
1175;DHT22;576;48.418;10.074;2022-09-09T14:23:18;30.10;62.00
1175;DHT22;576;48.418;10.074;2022-09-09T14:25:48;30.10;61.80
1175;DHT22;576;48.418;10.074;2022-09-09T14:28:17;30.10;61.80
1175;DHT22;576;48.418;10.074;2022-09-09T14:31:11;30.00;61.50
1175;DHT22;576;48.418;10.074;2022-09-09T14:33:40;29.90;61.10
1175;DHT22;576;48.418;10.074;2022-09-09T14:36:15;29.80;61.00
1175;DHT22;576;48.418;10.074;2022-09-09T14:38:43;29.60;60.90
1175;DHT22;576;48.418;10.074;2022-09-09T14:41:12;29.60;60.90
1175;DHT22;576;48.418;10.074;2022-09-09T14:43:41;29.50;60.90
1175;DHT22;576;48.418;10.074;2022-09-09T14:46:11;29.40;60.80
1175;DHT22;576;48.418;10.074;2022-09-09T14:48:40;29.30;60.80
1175;DHT22;576;48.418;10.074;2022-09-09T14:51:09;29.20;60.80
1175;DHT22;576;48.418;10.074;2022-09-09T14:53:41;29.20;60.90
1175;DHT22;576;48.418;10.074;2022-09-09T14:56:11;29.10;61.00
1175;DHT22;576;48.418;10.074;2022-09-09T14:58:39;29.10;61.10
1175;DHT22;576;48.418;10.074;2022-09-09T15:01:12;29.10;60.90
1175;DHT22;576;48.418;10.074;2022-09-09T15:03:41;29.10;60.70
1175;DHT22;576;48.418;10.074;2022-09-09T15:06:12;29.20;60.60
1175;DHT22;576;48.418;10.074;2022-09-09T15:08:43;29.20;60.40
1175;DHT22;576;48.418;10.074;2022-09-09T15:11:13;29.20;60.40
1175;DHT22;576;48.418;10.074;2022-09-09T15:13:42;29.20;60.40
1175;DHT22;576;48.418;10.074;2022-09-09T15:16:12;29.10;60.30
1175;DHT22;576;48.418;10.074;2022-09-09T15:18:43;29.10;60.40
1175;DHT22;576;48.418;10.074;2022-09-09T15:21:13;29.00;60.40
1175;DHT22;576;48.418;10.074;2022-09-09T15:23:43;28.90;60.50
1175;DHT22;576;48.418;10.074;2022-09-09T15:26:12;28.90;60.40
1175;DHT22;576;48.418;10.074;2022-09-09T15:28:42;28.80;60.50
1175;DHT22;576;48.418;10.074;2022-09-09T15:31:13;28.80;60.50
1175;DHT22;576;48.418;10.074;2022-09-09T15:33:47;28.80;60.50
1175;DHT22;576;48.418;10.074;2022-09-09T15:36:17;28.80;60.60
1175;DHT22;576;48.418;10.074;2022-09-09T15:38:48;28.70;60.70
1175;DHT22;576;48.418;10.074;2022-09-09T15:41:17;28.80;60.60
1175;DHT22;576;48.418;10.074;2022-09-09T15:43:47;28.80;60.70
1175;DHT22;576;48.418;10.074;2022-09-09T15:46:26;28.80;60.90
1175;DHT22;576;48.418;10.074;2022-09-09T15:48:55;28.80;60.80
1175;DHT22;576;48.418;10.074;2022-09-09T15:51:25;28.90;60.50
1175;DHT22;576;48.418;10.074;2022-09-09T15:54:11;28.90;60.40
1175;DHT22;576;48.418;10.074;2022-09-09T15:56:40;28.90;60.30
1175;DHT22;576;48.418;10.074;2022-09-09T15:59:09;28.90;60.20
1175;DHT22;576;48.418;10.074;2022-09-09T16:01:38;28.90;60.20
1175;DHT22;576;48.418;10.074;2022-09-09T16:04:08;28.90;60.30
1175;DHT22;576;48.418;10.074;2022-09-09T16:06:36;28.90;60.30
1175;DHT22;576;48.418;10.074;2022-09-09T16:09:05;29.00;60.20
1175;DHT22;576;48.418;10.074;2022-09-09T16:11:36;29.00;60.10
1175;DHT22;576;48.418;10.074;2022-09-09T16:14:05;29.00;60.10
1175;DHT22;576;48.418;10.074;2022-09-09T16:16:34;29.00;60.20
1175;DHT22;576;48.418;10.074;2022-09-09T16:19:05;29.00;60.10
1175;DHT22;576;48.418;10.074;2022-09-09T16:21:35;28.90;60.20
1175;DHT22;576;48.418;10.074;2022-09-09T16:24:05;28.90;60.10
1175;DHT22;576;48.418;10.074;2022-09-09T16:26:37;28.90;60.10
1175;DHT22;576;48.418;10.074;2022-09-09T16:29:06;28.90;60.00
1175;DHT22;576;48.418;10.074;2022-09-09T16:31:36;28.90;59.90
1175;DHT22;576;48.418;10.074;2022-09-09T16:34:04;28.90;59.90
1175;DHT22;576;48.418;10.074;2022-09-09T16:36:34;28.90;59.90
1175;DHT22;576;48.418;10.074;2022-09-09T16:39:07;28.90;60.00
1175;DHT22;576;48.418;10.074;2022-09-09T16:41:39;28.80;60.20
1175;DHT22;576;48.418;10.074;2022-09-09T16:44:10;28.80;60.20
1175;DHT22;576;48.418;10.074;2022-09-09T16:46:40;28.70;60.40